createdAt,value
2022-12-24T00:01:03.790Z,3.62
2022-12-24T00:03:30.974Z,4.14
2022-12-24T00:05:58.259Z,4.48
2022-12-24T00:08:25.313Z,4.49
2022-12-24T00:10:52.879Z,4.31
2022-12-24T00:13:20.232Z,4.07
2022-12-24T00:15:47.210Z,3.84
2022-12-24T00:18:14.219Z,4.09
2022-12-24T00:20:41.152Z,4.49
2022-12-24T00:23:08.132Z,4.43
2022-12-24T00:25:35.032Z,4.24
2022-12-24T00:28:01.934Z,3.96
2022-12-24T00:30:29.038Z,3.90
2022-12-24T00:32:55.932Z,4.22
2022-12-24T00:35:22.861Z,4.37
2022-12-24T00:37:49.769Z,4.21
2022-12-24T00:40:17.242Z,3.99
2022-12-24T00:42:44.274Z,3.95
2022-12-24T00:45:11.831Z,4.29
2022-12-24T00:47:38.888Z,4.47
2022-12-24T00:50:06.924Z,4.33
2022-12-24T00:52:33.909Z,4.25
2022-12-24T00:55:00.868Z,3.99
2022-12-24T00:57:27.822Z,4.30
2022-12-24T00:59:54.731Z,4.53
2022-12-24T01:02:21.965Z,4.49
2022-12-24T01:05:07.847Z,4.35
2022-12-24T01:07:34.827Z,4.28
2022-12-24T01:10:01.686Z,4.72
2022-12-24T01:12:28.612Z,4.91
2022-12-24T01:14:55.534Z,4.79
2022-12-24T01:17:22.446Z,4.53
2022-12-24T01:19:49.289Z,4.35
2022-12-24T01:22:16.128Z,4.19
2022-12-24T01:24:43.100Z,4.61
2022-12-24T01:27:09.942Z,4.73
2022-12-24T01:29:36.887Z,4.51
2022-12-24T01:32:03.931Z,4.46
2022-12-24T01:34:31.038Z,4.22
2022-12-24T01:36:57.868Z,4.36
2022-12-24T01:39:24.737Z,4.67
2022-12-24T01:42:10.365Z,4.69
2022-12-24T01:44:42.154Z,4.48
2022-12-24T01:47:11.397Z,4.22
2022-12-24T01:49:42.969Z,4.16
2022-12-24T01:52:13.239Z,4.63
2022-12-24T01:55:01.624Z,4.78
2022-12-24T01:57:32.027Z,4.61
2022-12-24T02:00:00.935Z,4.44
2022-12-24T02:02:28.064Z,4.28
2022-12-24T02:04:59.273Z,4.32
2022-12-24T02:07:26.163Z,4.91
2022-12-24T02:10:00.135Z,5.06
2022-12-24T02:12:27.809Z,4.92
2022-12-24T02:14:54.675Z,4.72
2022-12-24T02:17:42.297Z,4.47
2022-12-24T02:20:31.654Z,4.32
2022-12-24T02:23:17.321Z,4.79
2022-12-24T02:26:07.816Z,4.99
2022-12-24T02:28:56.428Z,4.83
2022-12-24T02:31:27.657Z,4.62
2022-12-24T02:34:06.755Z,4.35
2022-12-24T02:36:40.964Z,4.19
2022-12-24T02:39:13.157Z,4.67
2022-12-24T02:42:01.335Z,4.88
2022-12-24T02:44:29.068Z,4.80
2022-12-24T02:46:57.001Z,4.53
2022-12-24T02:49:23.859Z,4.31
2022-12-24T02:51:50.750Z,4.09
2022-12-24T02:54:17.632Z,4.34
2022-12-24T02:57:08.322Z,4.84
2022-12-24T02:59:55.384Z,4.98
2022-12-24T03:02:44.646Z,4.79
2022-12-24T03:05:20.582Z,4.48
2022-12-24T03:07:59.870Z,4.27
2022-12-24T03:10:35.910Z,4.20
2022-12-24T03:13:09.235Z,4.75
2022-12-24T03:15:36.246Z,5.19
2022-12-24T03:18:03.122Z,5.19
2022-12-24T03:20:34.927Z,4.92
2022-12-24T03:23:01.786Z,4.66
2022-12-24T03:25:28.629Z,4.32
2022-12-24T03:27:56.596Z,4.09
2022-12-24T03:30:23.881Z,3.96
2022-12-24T03:32:50.830Z,4.44
2022-12-24T03:35:17.719Z,5.00
2022-12-24T03:37:45.270Z,5.09
2022-12-24T03:40:12.584Z,4.92
2022-12-24T03:42:39.422Z,4.63
2022-12-24T03:45:06.645Z,4.35
2022-12-24T03:47:33.589Z,4.12
2022-12-24T03:50:00.462Z,4.01
2022-12-24T03:52:27.301Z,4.55
2022-12-24T03:54:54.275Z,5.04
2022-12-24T03:57:21.183Z,5.03
2022-12-24T03:59:48.099Z,4.84
2022-12-24T04:02:15.075Z,4.65
2022-12-24T04:04:42.077Z,4.37
2022-12-24T04:07:09.040Z,4.28
2022-12-24T04:09:36.060Z,4.80
2022-12-24T04:12:03.083Z,5.07
2022-12-24T04:14:29.901Z,4.99
2022-12-24T04:16:56.789Z,4.76
2022-12-24T04:19:23.672Z,4.51
2022-12-24T04:21:50.756Z,4.29
2022-12-24T04:24:17.658Z,4.22
2022-12-24T04:26:44.537Z,4.65
2022-12-24T04:29:11.358Z,4.78
2022-12-24T04:31:38.342Z,4.68
2022-12-24T04:34:05.285Z,4.44
2022-12-24T04:36:32.153Z,4.18
2022-12-24T04:38:59.071Z,4.03
2022-12-24T04:41:25.963Z,4.40
2022-12-24T04:43:53.531Z,4.73
2022-12-24T04:46:22.270Z,4.67
2022-12-24T04:48:50.114Z,4.44
2022-12-24T04:51:17.307Z,4.21
2022-12-24T04:53:44.415Z,3.97
2022-12-24T04:56:16.461Z,4.21
2022-12-24T04:58:43.352Z,4.64
2022-12-24T05:01:23.829Z,4.63
2022-12-24T05:03:51.281Z,4.31
2022-12-24T05:06:23.285Z,4.09
2022-12-24T05:08:50.248Z,3.92
2022-12-24T05:11:17.260Z,3.80
2022-12-24T05:13:47.563Z,4.22
2022-12-24T05:16:15.821Z,4.71
2022-12-24T05:18:42.875Z,4.74
2022-12-24T05:21:20.193Z,4.55
2022-12-24T05:24:05.787Z,4.33
2022-12-24T05:26:35.768Z,4.06
2022-12-24T05:29:03.645Z,3.89
2022-12-24T05:31:31.589Z,4.32
2022-12-24T05:33:58.477Z,4.69
2022-12-24T05:36:25.421Z,4.61
2022-12-24T05:38:52.474Z,4.34
2022-12-24T05:41:19.593Z,4.09
2022-12-24T05:43:46.512Z,3.83
2022-12-24T05:46:14.970Z,3.74
2022-12-24T05:48:41.864Z,4.26
2022-12-24T05:51:10.633Z,4.55
2022-12-24T05:53:37.581Z,4.47
2022-12-24T05:56:12.453Z,4.29
2022-12-24T05:58:39.846Z,4.02
2022-12-24T06:01:07.009Z,3.82
2022-12-24T06:03:34.324Z,3.86
2022-12-24T06:06:05.348Z,4.38
2022-12-24T06:08:32.440Z,4.58
2022-12-24T06:11:00.526Z,4.44
2022-12-24T06:13:27.497Z,4.21
2022-12-24T06:15:55.748Z,3.92
2022-12-24T06:18:23.171Z,3.78
2022-12-24T06:20:51.893Z,4.14
2022-12-24T06:23:18.990Z,4.54
2022-12-24T06:25:46.515Z,4.55
2022-12-24T06:28:13.809Z,4.37
2022-12-24T06:30:41.165Z,4.12
2022-12-24T06:33:08.160Z,3.94
2022-12-24T06:35:36.224Z,4.16
2022-12-24T06:38:03.215Z,4.49
2022-12-24T06:40:30.244Z,4.38
2022-12-24T06:42:57.258Z,4.23
2022-12-24T06:45:24.833Z,4.07
2022-12-24T06:47:52.096Z,3.87
2022-12-24T06:50:19.124Z,4.28
2022-12-24T06:52:46.221Z,4.74
2022-12-24T06:55:13.257Z,4.77
2022-12-24T06:57:40.252Z,4.60
2022-12-24T07:00:08.740Z,4.41
2022-12-24T07:02:35.890Z,4.18
2022-12-24T07:05:02.996Z,4.05
2022-12-24T07:07:30.037Z,4.53
2022-12-24T07:09:57.061Z,4.88
2022-12-24T07:12:24.082Z,4.85
2022-12-24T07:14:51.074Z,4.65
2022-12-24T07:17:18.820Z,4.43
2022-12-24T07:19:46.378Z,4.22
2022-12-24T07:22:15.792Z,4.07
2022-12-24T07:25:03.504Z,4.39
2022-12-24T07:27:31.884Z,4.75
2022-12-24T07:30:01.165Z,4.68
2022-12-24T07:32:31.160Z,4.48
2022-12-24T07:35:00.382Z,4.28
2022-12-24T07:37:29.196Z,4.04
2022-12-24T07:39:59.161Z,4.14
2022-12-24T07:42:28.950Z,4.82
2022-12-24T07:44:58.571Z,5.10
2022-12-24T07:47:27.655Z,4.97
2022-12-24T07:49:57.205Z,4.73
2022-12-24T07:52:26.210Z,4.49
2022-12-24T07:54:55.181Z,4.31
2022-12-24T07:57:23.640Z,4.20
2022-12-24T07:59:53.696Z,4.66
2022-12-24T08:02:23.936Z,5.11
2022-12-24T08:04:54.586Z,5.15
2022-12-24T08:07:24.221Z,5.02
2022-12-24T08:10:14.632Z,4.82
2022-12-24T08:12:43.678Z,4.61
2022-12-24T08:15:13.250Z,4.46
2022-12-24T08:17:42.134Z,4.89
2022-12-24T08:20:11.867Z,5.37
2022-12-24T08:22:41.257Z,5.29
2022-12-24T08:25:10.476Z,5.15
2022-12-24T08:35:52.770Z,4.51
2022-12-24T08:38:20.872Z,5.09
2022-12-24T08:40:52.256Z,5.31
2022-12-24T08:43:19.239Z,5.29
2022-12-24T08:45:47.199Z,5.10
2022-12-24T08:48:14.146Z,4.76
2022-12-24T08:50:41.702Z,4.61
2022-12-24T08:53:09.366Z,4.48
2022-12-24T08:55:36.603Z,5.00
2022-12-24T08:58:03.673Z,5.23
2022-12-24T09:00:30.709Z,5.27
2022-12-24T09:02:58.091Z,5.22
2022-12-24T09:05:26.248Z,4.99
2022-12-24T09:07:53.166Z,4.87
2022-12-24T09:10:20.014Z,4.79
2022-12-24T09:12:47.904Z,4.81
2022-12-24T09:15:15.002Z,5.16
2022-12-24T09:17:42.224Z,5.53
2022-12-24T09:20:09.959Z,5.64
2022-12-24T09:22:38.150Z,5.53
2022-12-24T09:27:54.464Z,5.30
2022-12-24T09:30:21.559Z,5.19
2022-12-24T09:32:48.662Z,5.07
2022-12-24T09:35:15.689Z,5.57
2022-12-24T09:37:42.636Z,6.20
2022-12-24T09:40:37.835Z,6.36
2022-12-24T09:43:31.918Z,6.21
2022-12-24T09:45:58.798Z,5.88
2022-12-24T09:48:28.888Z,5.61
2022-12-24T09:51:02.573Z,5.37
2022-12-24T09:53:57.332Z,5.17
2022-12-24T09:56:33.955Z,5.07
2022-12-24T09:59:02.464Z,5.79
2022-12-24T10:01:30.563Z,6.38
2022-12-24T10:04:09.975Z,6.43
2022-12-24T10:06:43.572Z,6.19
2022-12-24T10:09:20.940Z,5.92
2022-12-24T10:11:54.695Z,5.66
2022-12-24T10:14:30.935Z,5.43
2022-12-24T10:17:23.421Z,5.27
2022-12-24T10:20:15.517Z,5.23
2022-12-24T10:23:24.927Z,6.02
2022-12-24T10:26:10.410Z,6.59
2022-12-24T10:28:48.007Z,6.51
2022-12-24T10:31:15.324Z,6.27
2022-12-24T10:33:44.891Z,5.96
2022-12-24T10:36:17.547Z,5.63
2022-12-24T10:38:45.709Z,5.38
2022-12-24T10:41:13.689Z,5.65
2022-12-24T10:43:42.564Z,5.87
2022-12-24T10:46:20.184Z,6.00
2022-12-24T10:49:00.935Z,5.85
2022-12-24T10:51:40.984Z,5.64
2022-12-24T10:54:18.336Z,5.39
2022-12-24T10:56:50.696Z,5.57
2022-12-24T10:59:39.806Z,5.90
2022-12-24T11:02:32.137Z,5.70
2022-12-24T11:05:00.373Z,5.72
2022-12-24T11:07:28.659Z,5.57
2022-12-24T11:10:04.452Z,5.38
2022-12-24T11:12:33.238Z,5.30
2022-12-24T11:15:08.098Z,5.79
2022-12-24T11:17:35.032Z,6.18
2022-12-24T11:20:03.592Z,6.11
2022-12-24T11:22:31.554Z,5.84
2022-12-24T11:25:03.358Z,5.63
2022-12-24T11:27:51.742Z,5.46
2022-12-24T11:30:31.180Z,5.69
2022-12-24T11:33:01.237Z,6.10
2022-12-24T11:35:29.499Z,6.03
2022-12-24T11:38:03.304Z,5.78
2022-12-24T11:43:25.431Z,5.27
2022-12-24T11:45:56.511Z,5.76
2022-12-24T11:48:29.705Z,6.10
2022-12-24T11:51:06.571Z,6.01
2022-12-24T11:53:55.934Z,5.77
2022-12-24T11:56:31.587Z,5.46
2022-12-24T11:59:02.659Z,5.29
2022-12-24T12:01:51.230Z,5.69
2022-12-24T12:04:23.038Z,6.19
2022-12-24T12:07:15.435Z,6.11
2022-12-24T12:09:56.682Z,5.81
2022-12-24T12:12:26.477Z,5.54
2022-12-24T12:15:01.093Z,5.27
2022-12-24T12:17:40.998Z,5.67
2022-12-24T12:20:25.188Z,6.05
2022-12-24T12:23:29.082Z,5.96
2022-12-24T12:26:13.135Z,5.65
2022-12-24T12:28:50.225Z,5.38
2022-12-24T12:31:37.210Z,5.18
2022-12-24T12:34:08.015Z,5.71
2022-12-24T12:36:39.658Z,6.09
2022-12-24T12:39:06.675Z,6.01
2022-12-24T12:41:37.962Z,5.83
2022-12-24T12:44:43.476Z,5.60
2022-12-24T12:47:26.008Z,5.36
2022-12-24T12:50:14.850Z,5.22
2022-12-24T12:53:00.434Z,5.86
2022-12-24T12:55:58.659Z,6.36
2022-12-24T12:58:37.877Z,6.26
2022-12-24T13:01:32.547Z,6.00
2022-12-24T13:04:15.991Z,5.71
2022-12-24T13:07:08.624Z,5.46
2022-12-24T13:09:58.199Z,5.27
2022-12-24T13:12:31.396Z,5.92
2022-12-24T13:15:04.999Z,6.41
2022-12-24T13:18:01.376Z,6.38
2022-12-24T13:20:29.901Z,6.09
2022-12-24T13:22:56.760Z,5.80
2022-12-24T13:25:35.248Z,5.55
2022-12-24T13:28:35.196Z,5.37
2022-12-24T13:31:02.123Z,6.03
2022-12-24T13:33:38.832Z,6.53
2022-12-24T13:36:18.775Z,6.55
2022-12-24T13:38:58.449Z,6.34
2022-12-24T13:41:41.135Z,6.06
2022-12-24T13:44:13.294Z,5.74
2022-12-24T13:46:47.779Z,5.50
2022-12-24T13:49:22.406Z,5.90
2022-12-24T13:51:51.096Z,6.45
2022-12-24T13:54:21.021Z,6.46
2022-12-24T13:56:47.953Z,6.27
2022-12-24T13:59:39.020Z,6.01
2022-12-24T14:02:06.542Z,5.73
2022-12-24T14:04:35.397Z,5.52
2022-12-24T14:07:03.817Z,5.87
2022-12-24T14:09:31.062Z,6.39
2022-12-24T14:12:04.230Z,6.46
2022-12-24T14:14:38.942Z,6.27
2022-12-24T14:17:18.490Z,6.00
2022-12-24T14:19:48.022Z,5.66
2022-12-24T14:22:29.901Z,5.45
2022-12-24T14:24:59.002Z,5.90
2022-12-24T14:27:34.017Z,6.45
2022-12-24T14:30:20.951Z,6.53
2022-12-24T14:32:49.116Z,6.32
2022-12-24T14:35:20.470Z,6.04
2022-12-24T14:37:49.696Z,5.75
2022-12-24T14:40:18.920Z,5.53
2022-12-24T14:43:13.661Z,5.83
2022-12-24T14:45:44.512Z,6.33
2022-12-24T14:48:26.085Z,6.29
2022-12-24T14:51:18.448Z,6.05
2022-12-24T14:53:54.129Z,5.74
2022-12-24T14:56:22.646Z,5.48
2022-12-24T14:58:50.029Z,5.32
2022-12-24T15:01:43.626Z,5.69
2022-12-24T15:04:10.689Z,6.32
2022-12-24T15:06:49.598Z,6.40
2022-12-24T15:09:20.441Z,6.21
2022-12-24T15:11:49.057Z,5.90
2022-12-24T15:14:16.689Z,5.62
2022-12-24T15:16:44.165Z,5.38
2022-12-24T15:19:22.878Z,5.71
2022-12-24T15:21:49.961Z,6.27
2022-12-24T15:24:37.539Z,6.33
2022-12-24T15:27:17.149Z,6.19
2022-12-24T15:29:45.408Z,5.92
2022-12-24T15:32:19.354Z,5.66
2022-12-24T15:34:47.962Z,5.47
2022-12-24T15:37:21.196Z,5.85
2022-12-24T15:40:27.049Z,6.40
2022-12-24T15:42:56.009Z,6.48
2022-12-24T15:45:29.983Z,6.29
2022-12-24T15:47:59.566Z,6.02
2022-12-24T15:50:32.655Z,5.72
2022-12-24T15:53:19.906Z,5.47
2022-12-24T15:56:06.600Z,5.91
2022-12-24T15:58:35.803Z,6.42
2022-12-24T16:01:08.778Z,6.44
2022-12-24T16:03:37.891Z,6.26
2022-12-24T16:06:11.941Z,6.03
2022-12-24T16:11:25.617Z,5.47
2022-12-24T16:14:07.842Z,5.89
2022-12-24T16:16:37.516Z,6.42
2022-12-24T16:19:06.304Z,6.31
2022-12-24T16:21:36.334Z,6.02
2022-12-24T16:24:21.252Z,5.79
2022-12-24T16:26:48.470Z,5.50
2022-12-24T16:29:15.983Z,5.20
2022-12-24T16:31:56.423Z,4.96
2022-12-24T16:34:30.009Z,5.37
2022-12-24T16:36:57.396Z,5.92
2022-12-24T16:39:30.950Z,5.97
2022-12-24T16:42:18.196Z,5.72
2022-12-24T16:44:45.231Z,5.44
2022-12-24T16:47:22.816Z,5.20
2022-12-24T16:49:49.943Z,4.98
2022-12-24T16:52:21.539Z,5.36
2022-12-24T16:54:49.478Z,5.72
2022-12-24T16:57:17.522Z,5.68
2022-12-24T16:59:44.592Z,5.44
2022-12-24T17:02:17.250Z,5.17
2022-12-24T17:04:44.512Z,4.90
2022-12-24T17:07:12.707Z,4.69
2022-12-24T17:09:39.645Z,4.47
2022-12-24T17:12:06.865Z,4.89
2022-12-24T17:14:33.927Z,5.50
2022-12-24T17:17:01.226Z,5.67
2022-12-24T17:39:27.963Z,5.86
2022-12-24T17:41:55.234Z,5.59
2022-12-24T17:44:22.246Z,5.20
2022-12-24T17:46:49.565Z,4.79
2022-12-24T17:49:16.551Z,4.45
2022-12-24T17:51:45.922Z,4.21
2022-12-24T17:54:13.511Z,4.66
2022-12-24T17:56:40.763Z,5.16
2022-12-24T17:59:07.668Z,5.20
2022-12-24T18:01:34.764Z,4.96
2022-12-24T18:04:02.920Z,4.73
2022-12-24T18:06:30.081Z,4.57
2022-12-24T18:08:57.226Z,4.43
2022-12-24T18:11:33.057Z,4.83
2022-12-24T18:14:01.383Z,5.45
2022-12-24T18:16:33.714Z,5.57
2022-12-24T18:19:01.186Z,5.40
2022-12-24T18:21:30.234Z,5.20
2022-12-24T18:23:57.727Z,5.02
2022-12-24T18:26:26.679Z,4.91
2022-12-24T18:28:54.654Z,5.30
2022-12-24T18:31:21.830Z,5.80
2022-12-24T18:36:31.223Z,5.63
2022-12-24T18:38:58.186Z,5.38
2022-12-24T18:41:27.439Z,5.14
2022-12-24T18:43:54.621Z,4.90
2022-12-24T18:46:23.966Z,4.67
2022-12-24T18:49:11.968Z,5.06
2022-12-24T18:51:38.845Z,5.65
2022-12-24T18:54:06.068Z,5.68
2022-12-24T18:56:33.372Z,5.47
2022-12-24T18:59:02.071Z,5.18
2022-12-24T19:01:31.278Z,4.89
2022-12-24T19:03:58.704Z,4.67
2022-12-24T19:06:25.741Z,4.50
2022-12-24T19:09:01.698Z,4.91
2022-12-24T19:11:30.966Z,5.52
2022-12-24T19:13:58.382Z,5.60
2022-12-24T19:16:26.248Z,5.43
2022-12-24T19:18:53.925Z,5.20
2022-12-24T19:21:21.034Z,4.96
2022-12-24T19:23:48.098Z,4.72
2022-12-24T19:26:16.270Z,4.55
2022-12-24T19:28:43.259Z,5.00
2022-12-24T19:31:12.443Z,5.61
2022-12-24T19:33:43.143Z,5.71
2022-12-24T19:36:13.575Z,5.55
2022-12-24T19:38:40.637Z,5.26
2022-12-24T19:41:09.006Z,4.96
2022-12-24T19:43:56.301Z,4.64
2022-12-24T19:46:25.431Z,4.41
2022-12-24T19:48:57.577Z,4.94
2022-12-24T19:51:25.446Z,5.51
2022-12-24T19:53:53.652Z,5.55
2022-12-24T19:56:21.886Z,5.38
2022-12-24T19:58:49.148Z,5.18
2022-12-24T20:01:23.612Z,4.97
2022-12-24T20:03:51.341Z,4.70
2022-12-24T20:06:20.605Z,4.52
2022-12-24T20:08:48.450Z,4.94
2022-12-24T20:11:19.135Z,5.56
2022-12-24T20:13:46.544Z,5.72
2022-12-24T20:16:17.903Z,5.58
2022-12-24T20:18:51.233Z,5.36
2022-12-24T20:21:18.286Z,5.08
2022-12-24T20:23:45.334Z,4.84
2022-12-24T20:26:14.343Z,4.71
2022-12-24T20:28:41.745Z,5.14
2022-12-24T20:31:16.161Z,5.67
2022-12-24T20:33:43.672Z,5.70
2022-12-24T20:36:11.338Z,5.51
2022-12-24T20:38:39.315Z,5.29
2022-12-24T20:41:14.887Z,5.08
2022-12-24T20:44:59.193Z,4.85
2022-12-24T20:47:26.438Z,4.79
2022-12-24T20:49:53.385Z,5.53
2022-12-24T20:52:20.469Z,6.05
2022-12-24T20:54:47.400Z,6.08
2022-12-24T20:57:14.295Z,5.89
2022-12-24T20:59:41.476Z,5.60
2022-12-24T21:02:13.155Z,5.23
2022-12-24T21:04:40.339Z,4.86
2022-12-24T21:07:07.447Z,4.60
2022-12-24T21:09:34.279Z,4.97
2022-12-24T21:12:24.253Z,5.52
2022-12-24T21:14:51.231Z,5.35
2022-12-24T21:17:18.304Z,5.02
2022-12-24T21:19:45.393Z,4.78
2022-12-24T21:22:12.355Z,4.56
2022-12-24T21:24:39.898Z,4.40
2022-12-24T21:27:06.799Z,4.23
2022-12-24T21:29:33.708Z,4.64
2022-12-24T21:32:00.607Z,5.11
2022-12-24T21:34:27.578Z,5.03
2022-12-24T21:36:55.024Z,4.86
2022-12-24T21:39:22.075Z,4.61
2022-12-24T21:41:49.226Z,4.37
2022-12-24T21:44:16.215Z,4.17
2022-12-24T21:46:43.221Z,4.57
2022-12-24T21:49:28.877Z,5.14
2022-12-24T21:51:55.848Z,5.22
2022-12-24T21:54:30.793Z,5.06
2022-12-24T21:57:24.813Z,4.85
2022-12-24T21:59:52.913Z,4.57
2022-12-24T22:02:20.904Z,4.33
2022-12-24T22:04:47.944Z,4.73
2022-12-24T22:10:26.317Z,5.43
2022-12-24T22:12:53.938Z,5.21
2022-12-24T22:15:21.412Z,4.90
2022-12-24T22:17:48.363Z,4.60
2022-12-24T22:20:15.280Z,4.36
2022-12-24T22:22:42.272Z,4.65
2022-12-24T22:25:09.191Z,4.88
2022-12-24T22:27:36.227Z,4.87
2022-12-24T22:30:03.300Z,4.54
2022-12-24T22:32:30.201Z,4.28
2022-12-24T22:34:57.673Z,3.88
2022-12-24T22:37:24.561Z,3.85
2022-12-24T22:39:51.565Z,4.26
2022-12-24T22:42:18.434Z,4.47
2022-12-24T22:44:47.911Z,4.45
2022-12-24T22:47:14.886Z,4.36
2022-12-24T22:49:41.812Z,4.22
2022-12-24T22:52:09.397Z,4.09
2022-12-24T22:54:36.397Z,4.52
2022-12-24T22:57:03.449Z,5.13
2022-12-24T22:59:30.325Z,5.25
2022-12-24T23:01:58.245Z,5.09
2022-12-24T23:04:26.325Z,4.80
2022-12-24T23:06:53.223Z,4.34
2022-12-24T23:09:20.229Z,4.08
2022-12-24T23:11:47.232Z,4.41
2022-12-24T23:14:35.159Z,4.77
2022-12-24T23:17:02.092Z,4.60
2022-12-24T23:19:29.623Z,4.34
2022-12-24T23:21:56.602Z,4.10
2022-12-24T23:24:23.599Z,3.76
2022-12-24T23:26:51.094Z,3.90
2022-12-24T23:29:18.213Z,4.34
2022-12-24T23:31:45.203Z,4.36
2022-12-24T23:34:12.306Z,3.98
2022-12-24T23:36:39.243Z,3.71
2022-12-24T23:39:06.133Z,3.69
2022-12-24T23:41:33.140Z,4.02
2022-12-24T23:44:00.081Z,4.34
2022-12-24T23:46:27.271Z,4.33
2022-12-24T23:48:54.899Z,3.95
2022-12-24T23:51:24.969Z,3.78
2022-12-24T23:53:52.887Z,3.52
2022-12-24T23:56:20.642Z,3.91
2022-12-24T23:58:47.693Z,4.13
